createdAt,value
2023-03-04T00:01:47.395Z,101201.47
2023-03-04T00:04:15.110Z,101193.31
2023-03-04T00:06:42.679Z,101194.44
2023-03-04T00:09:13.390Z,101192.84
2023-03-04T00:11:41.452Z,101199.53
2023-03-04T00:14:09.316Z,101189.06
2023-03-04T00:16:37.344Z,101181.78
2023-03-04T00:19:05.169Z,101193.84
2023-03-04T00:21:34.661Z,101178.97
2023-03-04T00:24:02.522Z,101180.97
2023-03-04T00:26:32.971Z,101165.53
2023-03-04T00:29:00.818Z,101167.28
2023-03-04T00:31:28.601Z,101183.50
2023-03-04T00:33:56.509Z,101188.22
2023-03-04T00:36:25.243Z,101192.44
2023-03-04T00:38:55.095Z,101196.47
2023-03-04T00:41:23.046Z,101181.38
2023-03-04T00:43:51.101Z,101194.69
2023-03-04T00:46:18.922Z,101202.31
2023-03-04T00:48:46.987Z,101186.44
2023-03-04T00:51:14.910Z,101187.25
2023-03-04T00:53:45.725Z,101182.94
2023-03-04T00:56:13.771Z,101179.94
2023-03-04T00:58:41.641Z,101178.91
2023-03-04T01:01:09.393Z,101178.31
2023-03-04T01:03:37.297Z,101179.00
2023-03-04T01:06:06.190Z,101181.47
2023-03-04T01:08:34.147Z,101185.66
2023-03-04T01:11:01.932Z,101190.31
2023-03-04T01:13:29.815Z,101179.22
2023-03-04T01:15:57.970Z,101179.94
2023-03-04T01:18:28.298Z,101172.53
2023-03-04T01:20:59.250Z,101185.78
2023-03-04T01:23:27.352Z,101168.59
2023-03-04T01:25:55.053Z,101158.16
2023-03-04T01:28:22.760Z,101162.47
2023-03-04T01:30:50.894Z,101159.97
2023-03-04T01:33:18.878Z,101146.00
2023-03-04T01:35:46.806Z,101160.88
2023-03-04T01:38:14.612Z,101152.00
2023-03-04T01:40:42.801Z,101159.38
2023-03-04T01:43:20.407Z,101171.13
2023-03-04T01:45:50.759Z,101164.16
2023-03-04T01:48:24.803Z,101157.72
2023-03-04T01:50:53.999Z,101166.31
2023-03-04T01:53:25.405Z,101154.84
2023-03-04T01:55:55.566Z,101154.38
2023-03-04T01:58:28.567Z,101138.75
2023-03-04T02:00:57.225Z,101151.78
2023-03-04T02:03:25.533Z,101147.75
2023-03-04T02:05:56.509Z,101139.44
2023-03-04T02:08:25.717Z,101154.09
2023-03-04T02:10:54.511Z,101151.53
2023-03-04T02:13:23.099Z,101123.25
2023-03-04T02:15:55.534Z,101151.25
2023-03-04T02:18:25.227Z,101119.56
2023-03-04T02:21:15.938Z,101142.25
2023-03-04T02:23:52.771Z,101119.59
2023-03-04T02:26:23.733Z,101136.78
2023-03-04T02:28:56.506Z,101126.31
2023-03-04T02:31:30.610Z,101141.28
2023-03-04T02:34:01.565Z,101136.09
2023-03-04T02:36:30.037Z,101128.94
2023-03-04T02:39:05.631Z,101113.59
2023-03-04T02:41:34.597Z,101119.78
2023-03-04T02:44:02.661Z,101124.41
2023-03-04T02:46:30.589Z,101121.78
2023-03-04T02:49:01.606Z,101108.66
2023-03-04T02:51:44.904Z,101129.41
2023-03-04T02:54:21.617Z,101119.31
2023-03-04T02:56:52.212Z,101105.78
2023-03-04T02:59:23.204Z,101118.91
2023-03-04T03:01:52.202Z,101116.25
2023-03-04T03:04:22.374Z,101113.09
2023-03-04T03:06:53.200Z,101101.31
2023-03-04T03:09:22.404Z,101103.44
2023-03-04T03:11:50.274Z,101100.38
2023-03-04T03:14:18.047Z,101104.19
2023-03-04T03:16:45.899Z,101097.13
2023-03-04T03:19:13.739Z,101112.50
2023-03-04T03:21:41.552Z,101100.16
2023-03-04T03:24:09.394Z,101108.84
2023-03-04T03:26:37.272Z,101113.97
2023-03-04T03:29:04.983Z,101093.22
2023-03-04T03:31:32.876Z,101107.75
2023-03-04T03:34:00.720Z,101106.69
2023-03-04T03:36:29.238Z,101103.81
2023-03-04T03:38:57.624Z,101103.97
2023-03-04T03:41:25.295Z,101104.94
2023-03-04T03:43:53.294Z,101107.44
2023-03-04T03:46:21.119Z,101101.88
2023-03-04T03:48:48.783Z,101085.38
2023-03-04T03:51:16.555Z,101116.66
2023-03-04T03:53:44.437Z,101106.81
2023-03-04T03:56:12.100Z,101092.03
2023-03-04T03:58:39.638Z,101104.25
2023-03-04T04:01:09.392Z,101100.94
2023-03-04T04:03:37.055Z,101106.94
2023-03-04T04:06:04.908Z,101097.22
2023-03-04T04:08:33.530Z,101112.09
2023-03-04T04:11:01.141Z,101104.25
2023-03-04T04:13:29.084Z,101109.38
2023-03-04T04:15:57.010Z,101111.44
2023-03-04T04:18:26.330Z,101107.13
2023-03-04T04:20:54.830Z,101090.50
2023-03-04T04:23:22.856Z,101117.22
2023-03-04T04:25:50.690Z,101106.91
2023-03-04T04:28:18.458Z,101110.19
2023-03-04T04:30:46.504Z,101108.53
2023-03-04T04:33:14.260Z,101118.78
2023-03-04T04:35:42.142Z,101109.16
2023-03-04T04:38:10.721Z,101104.75
2023-03-04T04:40:38.582Z,101110.97
2023-03-04T04:43:06.941Z,101125.16
2023-03-04T04:45:35.311Z,101110.28
2023-03-04T04:48:02.961Z,101124.22
2023-03-04T04:50:32.881Z,101121.31
2023-03-04T04:53:01.057Z,101126.78
2023-03-04T04:55:28.708Z,101118.66
2023-03-04T04:57:56.728Z,101123.41
2023-03-04T05:00:24.530Z,101117.13
2023-03-04T05:02:52.498Z,101109.38
2023-03-04T05:05:20.257Z,101132.44
2023-03-04T05:07:47.906Z,101135.25
2023-03-04T05:10:16.314Z,101139.53
2023-03-04T05:12:45.027Z,101136.66
2023-03-04T05:15:12.728Z,101117.59
2023-03-04T05:17:40.358Z,101139.03
2023-03-04T05:20:09.007Z,101141.03
2023-03-04T05:22:36.679Z,101115.84
2023-03-04T05:25:05.223Z,101129.69
2023-03-04T05:27:36.301Z,101126.25
2023-03-04T05:30:05.075Z,101123.94
2023-03-04T05:32:33.313Z,101134.44
2023-03-04T05:35:01.022Z,101132.84
2023-03-04T05:37:29.566Z,101135.38
2023-03-04T05:39:57.285Z,101131.31
2023-03-04T05:42:25.779Z,101129.16
2023-03-04T05:44:53.454Z,101137.31
2023-03-04T05:47:21.015Z,101132.88
2023-03-04T05:49:48.962Z,101130.38
2023-03-04T05:52:17.002Z,101138.47
2023-03-04T05:54:45.056Z,101138.56
2023-03-04T05:57:13.023Z,101137.81
2023-03-04T05:59:40.769Z,101146.81
2023-03-04T06:02:08.970Z,101138.94
2023-03-04T06:04:37.493Z,101140.59
2023-03-04T06:07:08.267Z,101152.44
2023-03-04T06:09:36.275Z,101140.78
2023-03-04T06:12:07.835Z,101145.03
2023-03-04T06:14:35.497Z,101147.56
2023-03-04T06:17:03.279Z,101144.78
2023-03-04T06:19:30.984Z,101152.97
2023-03-04T06:22:00.112Z,101149.91
2023-03-04T06:24:31.569Z,101156.03
2023-03-04T06:26:59.649Z,101158.69
2023-03-04T06:29:27.789Z,101147.72
2023-03-04T06:31:57.507Z,101152.69
2023-03-04T06:34:29.946Z,101156.31
2023-03-04T06:36:58.406Z,101155.19
2023-03-04T06:39:26.301Z,101168.06
2023-03-04T06:41:54.257Z,101156.50
2023-03-04T06:44:22.193Z,101162.28
2023-03-04T06:46:50.175Z,101168.97
2023-03-04T06:49:18.647Z,101156.66
2023-03-04T06:51:46.531Z,101169.13
2023-03-04T06:54:20.109Z,101170.75
2023-03-04T06:56:47.889Z,101171.19
2023-03-04T06:59:16.575Z,101172.81
2023-03-04T07:01:44.278Z,101167.91
2023-03-04T07:04:13.928Z,101169.47
2023-03-04T07:06:42.069Z,101174.72
2023-03-04T07:09:09.946Z,101177.47
2023-03-04T07:11:37.987Z,101166.31
2023-03-04T07:14:05.707Z,101176.16
2023-03-04T07:16:34.131Z,101171.31
2023-03-04T07:19:02.148Z,101181.44
2023-03-04T07:21:30.607Z,101176.56
2023-03-04T07:23:59.597Z,101172.09
2023-03-04T07:26:30.471Z,101171.97
2023-03-04T07:29:01.614Z,101169.06
2023-03-04T07:31:32.183Z,101174.56
2023-03-04T07:34:05.530Z,101177.50
2023-03-04T07:36:35.864Z,101164.63
2023-03-04T07:39:05.153Z,101168.03
2023-03-04T07:41:36.511Z,101169.69
2023-03-04T07:44:07.763Z,101160.09
2023-03-04T07:46:35.852Z,101165.84
2023-03-04T07:49:04.529Z,101155.22
2023-03-04T07:51:33.462Z,101164.19
2023-03-04T07:54:02.156Z,101160.56
2023-03-04T07:56:33.893Z,101164.19
2023-03-04T07:59:02.534Z,101158.09
2023-03-04T08:01:36.481Z,101154.78
2023-03-04T08:04:08.107Z,101155.13
2023-03-04T08:06:42.679Z,101156.16
2023-03-04T08:09:13.843Z,101153.50
2023-03-04T08:11:42.161Z,101170.66
2023-03-04T08:14:12.069Z,101155.53
2023-03-04T08:16:40.789Z,101146.75
2023-03-04T08:19:09.642Z,101153.59
2023-03-04T08:21:37.622Z,101147.47
2023-03-04T08:24:08.978Z,101139.56
2023-03-04T08:26:47.437Z,101140.97
2023-03-04T08:29:21.572Z,101142.97
2023-03-04T08:31:54.528Z,101131.22
2023-03-04T08:34:26.023Z,101134.25
2023-03-04T08:36:54.314Z,101142.03
2023-03-04T08:39:22.231Z,101128.16
2023-03-04T08:41:50.318Z,101140.47
2023-03-04T08:44:18.425Z,101134.13
2023-03-04T08:46:46.391Z,101130.56
2023-03-04T08:49:14.828Z,101138.94
2023-03-04T08:51:43.016Z,101133.00
2023-03-04T08:54:13.085Z,101134.09
2023-03-04T08:56:42.138Z,101130.31
2023-03-04T08:59:10.017Z,101132.94
2023-03-04T09:01:38.008Z,101137.06
2023-03-04T09:04:06.177Z,101130.88
2023-03-04T09:06:33.860Z,101127.50
2023-03-04T09:09:01.769Z,101130.22
2023-03-04T09:11:30.150Z,101131.53
2023-03-04T09:13:58.315Z,101127.75
2023-03-04T09:16:26.221Z,101115.44
2023-03-04T09:18:54.575Z,101111.34
2023-03-04T09:21:22.517Z,101117.19
2023-03-04T09:23:50.705Z,101123.22
2023-03-04T09:26:24.664Z,101112.94
2023-03-04T09:28:54.469Z,101119.41
2023-03-04T09:31:23.266Z,101111.47
2023-03-04T09:33:53.078Z,101112.69
2023-03-04T09:36:21.985Z,101113.56
2023-03-04T09:38:50.339Z,101113.22
2023-03-04T09:41:26.605Z,101099.91
2023-03-04T09:43:56.391Z,101096.56
2023-03-04T09:46:36.122Z,101095.13
2023-03-04T09:49:07.247Z,101100.97
2023-03-04T09:51:57.065Z,101103.66
2023-03-04T09:54:32.894Z,101098.47
2023-03-04T09:57:18.241Z,101107.09
2023-03-04T10:00:00.616Z,101101.16
2023-03-04T10:02:48.180Z,101104.06
2023-03-04T10:05:21.207Z,101092.53
2023-03-04T10:07:58.854Z,101084.94
2023-03-04T10:10:32.083Z,101085.28
2023-03-04T10:13:02.307Z,101089.13
2023-03-04T10:15:47.183Z,101085.53
2023-03-04T10:18:25.363Z,101086.66
2023-03-04T10:21:10.797Z,101080.56
2023-03-04T10:23:43.050Z,101064.97
2023-03-04T10:26:17.647Z,101067.69
2023-03-04T10:28:45.779Z,101071.56
2023-03-04T10:31:36.962Z,101064.59
2023-03-04T10:34:05.956Z,101066.03
2023-03-04T10:36:49.140Z,101067.06
2023-03-04T10:39:29.807Z,101061.25
2023-03-04T10:42:05.540Z,101061.16
2023-03-04T10:44:35.605Z,101050.75
2023-03-04T10:47:10.311Z,101051.59
2023-03-04T10:49:58.667Z,101042.69
2023-03-04T10:52:38.960Z,101042.25
2023-03-04T10:55:19.263Z,101028.41
2023-03-04T10:57:56.229Z,101035.53
2023-03-04T11:00:38.689Z,101023.59
2023-03-04T11:03:31.799Z,101037.66
2023-03-04T11:06:18.253Z,101027.06
2023-03-04T11:08:54.693Z,101027.41
2023-03-04T11:11:43.027Z,101012.31
2023-03-04T11:14:47.103Z,101019.56
2023-03-04T11:17:45.525Z,101013.66
2023-03-04T11:20:38.615Z,101006.75
2023-03-04T11:23:16.410Z,101010.28
2023-03-04T11:25:49.500Z,100994.16
2023-03-04T11:28:20.626Z,100983.78
2023-03-04T11:31:01.077Z,100991.00
2023-03-04T11:33:41.686Z,100989.72
2023-03-04T11:36:24.553Z,100981.66
2023-03-04T11:38:52.793Z,100977.53
2023-03-04T11:41:43.254Z,100972.50
2023-03-04T11:44:13.690Z,100972.50
2023-03-04T11:46:41.592Z,100955.53
2023-03-04T11:49:18.757Z,100956.53
2023-03-04T11:51:54.328Z,100958.69
2023-03-04T11:54:43.392Z,100947.09
2023-03-04T11:57:39.077Z,100951.03
2023-03-04T12:00:28.484Z,100944.69
2023-03-04T12:03:38.444Z,100934.28
2023-03-04T12:06:36.933Z,100931.00
2023-03-04T12:09:26.557Z,100932.19
2023-03-04T12:12:26.970Z,100912.13
2023-03-04T12:14:54.708Z,100916.31
2023-03-04T12:17:46.447Z,100910.84
2023-03-04T12:20:30.301Z,100904.59
2023-03-04T12:23:00.739Z,100903.53
2023-03-04T12:25:52.038Z,100886.34
2023-03-04T12:28:52.522Z,100887.94
2023-03-04T12:31:45.748Z,100875.25
2023-03-04T12:34:22.555Z,100882.13
2023-03-04T12:36:57.151Z,100883.38
2023-03-04T12:39:41.018Z,100877.03
2023-03-04T12:42:19.864Z,100861.81
2023-03-04T12:44:59.828Z,100863.13
2023-03-04T12:48:01.687Z,100859.81
2023-03-04T12:50:40.992Z,100865.25
2023-03-04T12:53:29.964Z,100857.81
2023-03-04T12:55:59.531Z,100852.75
2023-03-04T12:58:32.477Z,100853.84
2023-03-04T13:01:12.850Z,100851.88
2023-03-04T13:03:47.014Z,100837.88
2023-03-04T13:06:25.805Z,100847.34
2023-03-04T13:09:22.749Z,100840.00
2023-03-04T13:11:52.967Z,100835.34
2023-03-04T13:14:24.153Z,100843.53
2023-03-04T13:17:01.950Z,100832.84
2023-03-04T13:19:43.488Z,100829.59
2023-03-04T13:22:36.150Z,100823.25
2023-03-04T13:25:37.809Z,100825.94
2023-03-04T13:28:11.826Z,100814.13
2023-03-04T13:30:39.637Z,100816.97
2023-03-04T13:33:16.358Z,100814.34
2023-03-04T13:35:50.118Z,100809.16
2023-03-04T13:38:27.889Z,100808.31
2023-03-04T13:41:20.148Z,100807.84
2023-03-04T13:43:55.608Z,100804.53
2023-03-04T13:46:24.121Z,100799.06
2023-03-04T13:48:52.780Z,100794.34
2023-03-04T13:51:45.235Z,100790.22
2023-03-04T13:54:27.737Z,100792.50
2023-03-04T13:57:01.283Z,100789.13
2023-03-04T13:59:54.077Z,100783.31
2023-03-04T14:02:25.656Z,100788.38
2023-03-04T14:05:03.502Z,100788.19
2023-03-04T14:07:32.317Z,100785.31
2023-03-04T14:10:08.654Z,100789.38
2023-03-04T14:12:40.601Z,100787.97
2023-03-04T14:15:14.614Z,100769.03
2023-03-04T14:17:49.666Z,100773.22
2023-03-04T14:20:39.208Z,100767.56
2023-03-04T14:23:31.546Z,100759.16
2023-03-04T14:26:08.467Z,100763.97
2023-03-04T14:28:44.680Z,100753.31
2023-03-04T14:31:18.390Z,100756.34
2023-03-04T14:33:52.138Z,100759.25
2023-03-04T14:36:23.683Z,100755.84
2023-03-04T14:38:59.368Z,100754.34
2023-03-04T14:41:35.852Z,100747.03
2023-03-04T14:44:28.266Z,100749.84
2023-03-04T14:47:07.911Z,100741.28
2023-03-04T14:49:37.530Z,100731.50
2023-03-04T14:52:06.757Z,100726.31
2023-03-04T14:54:40.945Z,100725.28
2023-03-04T14:57:26.713Z,100719.59
2023-03-04T14:59:55.872Z,100724.75
2023-03-04T15:02:23.744Z,100722.88
2023-03-04T15:04:51.655Z,100724.19
2023-03-04T15:07:31.708Z,100719.63
2023-03-04T15:09:59.940Z,100725.47
2023-03-04T15:12:30.935Z,100714.94
2023-03-04T15:15:02.165Z,100713.25
2023-03-04T15:17:42.692Z,100704.88
2023-03-04T15:20:10.241Z,100711.59
2023-03-04T15:22:58.500Z,100696.56
2023-03-04T15:25:26.039Z,100705.13
2023-03-04T15:27:54.978Z,100699.78
2023-03-04T15:30:27.620Z,100705.59
2023-03-04T15:32:57.215Z,100691.66
2023-03-04T15:35:31.979Z,100691.41
2023-03-04T15:38:00.699Z,100689.38
2023-03-04T15:40:34.854Z,100694.03
2023-03-04T15:43:04.207Z,100693.56
2023-03-04T15:45:36.471Z,100699.41
2023-03-04T15:48:10.242Z,100690.13
2023-03-04T15:50:41.596Z,100686.94
2023-03-04T15:53:16.837Z,100691.22
2023-03-04T15:55:46.861Z,100689.28
2023-03-04T15:58:15.841Z,100694.97
2023-03-04T16:00:43.997Z,100685.22
2023-03-04T16:03:17.312Z,100692.09
2023-03-04T16:05:47.624Z,100700.47
2023-03-04T16:08:18.895Z,100693.28
2023-03-04T16:10:47.025Z,100682.47
2023-03-04T16:13:16.877Z,100689.00
2023-03-04T16:15:45.101Z,100687.38
2023-03-04T16:18:16.581Z,100685.16
2023-03-04T16:20:49.781Z,100690.06
2023-03-04T16:23:22.580Z,100684.41
2023-03-04T16:25:56.586Z,100696.94
2023-03-04T16:28:24.502Z,100682.06
2023-03-04T16:30:52.492Z,100689.44
2023-03-04T16:33:24.845Z,100686.00
2023-03-04T16:35:52.782Z,100690.84
2023-03-04T16:38:26.254Z,100691.25
2023-03-04T16:40:56.365Z,100696.84
2023-03-04T16:43:24.178Z,100687.50
2023-03-04T16:45:54.516Z,100685.69
2023-03-04T16:48:22.443Z,100674.78
2023-03-04T16:50:50.268Z,100679.47
2023-03-04T16:53:33.505Z,100675.16
2023-03-04T16:56:05.989Z,100683.75
2023-03-04T16:58:35.463Z,100681.28
2023-03-04T17:01:04.756Z,100682.00
2023-03-04T17:03:32.928Z,100691.66
2023-03-04T17:06:00.879Z,100688.00
2023-03-04T17:08:28.757Z,100688.19
2023-03-04T17:10:56.482Z,100681.16
2023-03-04T17:13:24.262Z,100683.50
2023-03-04T17:15:52.311Z,100690.53
2023-03-04T17:18:20.294Z,100685.19
2023-03-04T17:20:51.127Z,100685.41
2023-03-04T17:23:18.515Z,100686.69
2023-03-04T17:25:46.173Z,100694.59
2023-03-04T17:28:14.018Z,100692.41
2023-03-04T17:30:41.862Z,100697.28
2023-03-04T17:33:13.880Z,100696.72
2023-03-04T17:35:41.795Z,100695.25
2023-03-04T17:38:09.605Z,100698.19
2023-03-04T17:40:37.227Z,100703.09
2023-03-04T17:43:11.258Z,100695.50
2023-03-04T17:45:40.678Z,100692.72
2023-03-04T17:48:15.202Z,100702.41
2023-03-04T17:50:50.785Z,100701.00
2023-03-04T17:53:23.893Z,100691.97
2023-03-04T17:56:02.871Z,100697.00
2023-03-04T17:58:32.286Z,100697.25
2023-03-04T18:01:04.557Z,100699.84
2023-03-04T18:03:32.810Z,100710.91
2023-03-04T18:06:00.580Z,100707.81
2023-03-04T18:08:28.360Z,100705.75
2023-03-04T18:10:56.228Z,100706.28
2023-03-04T18:13:24.196Z,100708.06
2023-03-04T18:15:51.935Z,100710.41
2023-03-04T18:18:19.712Z,100710.53
2023-03-04T18:20:47.850Z,100711.81
2023-03-04T18:23:15.556Z,100712.25
2023-03-04T18:25:43.120Z,100710.72
2023-03-04T18:28:10.865Z,100712.75
2023-03-04T18:30:40.406Z,100716.47
2023-03-04T18:33:16.471Z,100714.09
2023-03-04T18:35:44.780Z,100704.94
2023-03-04T18:38:12.488Z,100703.69
2023-03-04T18:40:41.462Z,100717.22
2023-03-04T18:43:09.487Z,100714.44
2023-03-04T18:45:40.716Z,100713.88
2023-03-04T18:48:08.707Z,100705.19
2023-03-04T18:50:36.920Z,100705.00
2023-03-04T18:53:05.090Z,100712.59
2023-03-04T18:55:33.545Z,100709.06
2023-03-04T18:58:01.741Z,100705.44
2023-03-04T19:00:30.052Z,100710.81
2023-03-04T19:03:12.150Z,100720.44
2023-03-04T19:05:40.624Z,100716.84
2023-03-04T19:08:08.401Z,100720.53
2023-03-04T19:10:38.006Z,100726.19
2023-03-04T19:13:05.973Z,100726.00
2023-03-04T19:15:33.842Z,100724.50
2023-03-04T19:18:01.496Z,100718.72
2023-03-04T19:20:29.344Z,100722.69
2023-03-04T19:22:57.343Z,100723.25
2023-03-04T19:25:25.821Z,100726.88
2023-03-04T19:27:55.474Z,100728.00
2023-03-04T19:30:23.811Z,100708.78
2023-03-04T19:32:51.766Z,100733.47
2023-03-04T19:35:19.718Z,100719.03
2023-03-04T19:37:47.563Z,100721.50
2023-03-04T19:40:15.512Z,100714.63
2023-03-04T19:42:43.415Z,100723.41
2023-03-04T19:45:11.483Z,100712.94
2023-03-04T19:47:42.616Z,100711.38
2023-03-04T19:50:13.508Z,100719.75
2023-03-04T19:52:42.975Z,100723.19
2023-03-04T19:55:14.138Z,100727.88
2023-03-04T19:57:42.420Z,100730.66
2023-03-04T20:00:11.999Z,100725.59
2023-03-04T20:02:40.204Z,100725.16
2023-03-04T20:05:10.341Z,100739.25
2023-03-04T20:07:39.896Z,100732.28
2023-03-04T20:10:11.269Z,100735.72
2023-03-04T20:12:39.340Z,100748.88
2023-03-04T20:15:10.555Z,100745.03
2023-03-04T20:17:38.449Z,100739.59
2023-03-04T20:20:07.626Z,100739.44
2023-03-04T20:22:35.271Z,100748.56
2023-03-04T20:25:03.861Z,100743.22
2023-03-04T20:27:31.801Z,100741.00
2023-03-04T20:30:01.326Z,100747.16
2023-03-04T20:32:30.531Z,100755.44
2023-03-04T20:34:58.437Z,100757.69
2023-03-04T20:37:26.095Z,100759.81
2023-03-04T20:39:56.988Z,100757.56
2023-03-04T20:42:25.533Z,100763.25
2023-03-04T20:44:53.153Z,100762.56
2023-03-04T20:47:20.653Z,100767.53
2023-03-04T20:49:48.279Z,100764.09
2023-03-04T20:52:16.017Z,100766.22
2023-03-04T20:54:43.538Z,100759.53
2023-03-04T20:57:11.356Z,100765.97
2023-03-04T20:59:40.132Z,100764.25
2023-03-04T21:02:09.658Z,100761.28
2023-03-04T21:04:37.322Z,100772.38
2023-03-04T21:07:04.811Z,100764.56
2023-03-04T21:09:32.411Z,100762.13
2023-03-04T21:12:01.120Z,100759.88
2023-03-04T21:14:30.644Z,100760.81
2023-03-04T21:17:01.446Z,100762.94
2023-03-04T21:19:35.123Z,100765.84
2023-03-04T21:22:02.905Z,100764.75
2023-03-04T21:24:36.170Z,100766.13
2023-03-04T21:27:04.694Z,100766.22
2023-03-04T21:29:32.185Z,100765.53
2023-03-04T21:32:20.915Z,100763.34
2023-03-04T21:34:52.323Z,100764.44
2023-03-04T21:37:21.059Z,100759.50
2023-03-04T21:39:51.000Z,100757.78
2023-03-04T21:42:18.857Z,100760.50
2023-03-04T21:44:51.454Z,100750.19
2023-03-04T21:47:21.086Z,100757.66
2023-03-04T21:49:49.045Z,100754.75
2023-03-04T21:52:21.005Z,100755.13
2023-03-04T21:54:49.655Z,100765.34
2023-03-04T21:57:22.465Z,100758.09
2023-03-04T21:59:49.984Z,100765.56
2023-03-04T22:02:22.093Z,100751.16
2023-03-04T22:04:49.825Z,100764.63
2023-03-04T22:07:18.803Z,100752.06
2023-03-04T22:09:46.312Z,100759.50
2023-03-04T22:12:15.461Z,100751.44
2023-03-04T22:14:43.879Z,100747.78
2023-03-04T22:17:13.183Z,100739.91
2023-03-04T22:19:40.834Z,100752.97
2023-03-04T22:22:09.851Z,100750.59
2023-03-04T22:24:40.552Z,100744.44
2023-03-04T22:27:08.323Z,100744.38
2023-03-04T22:29:35.840Z,100741.94
2023-03-04T22:32:03.613Z,100750.28
2023-03-04T22:34:31.397Z,100752.25
2023-03-04T22:36:59.156Z,100738.78
2023-03-04T22:39:26.801Z,100737.34
2023-03-04T22:41:54.305Z,100744.59
2023-03-04T22:44:22.527Z,100743.22
2023-03-04T22:46:50.187Z,100748.97
2023-03-04T22:49:17.875Z,100751.75
2023-03-04T22:51:45.827Z,100744.38
2023-03-04T22:54:15.388Z,100749.81
2023-03-04T22:56:42.990Z,100743.38
2023-03-04T22:59:10.677Z,100750.00
2023-03-04T23:01:38.564Z,100736.34
2023-03-04T23:04:06.444Z,100748.38
2023-03-04T23:06:34.115Z,100748.75
2023-03-04T23:09:02.166Z,100750.19
2023-03-04T23:11:32.907Z,100744.09
2023-03-04T23:14:02.273Z,100746.97
2023-03-04T23:16:29.979Z,100751.25
2023-03-04T23:18:59.381Z,100757.81
2023-03-04T23:21:33.939Z,100751.94
2023-03-04T23:24:03.037Z,100734.31
2023-03-04T23:26:33.600Z,100748.13
2023-03-04T23:29:03.023Z,100759.94
2023-03-04T23:31:32.677Z,100752.31
2023-03-04T23:34:01.874Z,100745.94
2023-03-04T23:36:35.448Z,100752.38
2023-03-04T23:39:05.780Z,100748.94
2023-03-04T23:41:34.954Z,100745.09
2023-03-04T23:44:03.394Z,100742.25
2023-03-04T23:46:31.175Z,100744.34
2023-03-04T23:48:58.844Z,100744.16
2023-03-04T23:51:28.949Z,100747.34
2023-03-04T23:53:57.176Z,100741.06
2023-03-04T23:56:30.840Z,100741.72
2023-03-04T23:58:58.285Z,100738.28
